VIAR/ATQ METAR and TAF weather

Enter ICAO airport designator
Station Type Date Time Source
VIAR METAR 2022/01/29 01:30 UTC NOAA

VIAR 290130Z 00000KT 1200 R34/2000 BR NSC 06/06 Q1017 NOSIG


Station Type Date Time Source
VIAR Decoded METAR 2022/01/29 01:30 UTC NOAA

Amritsar, India (VIAR) 31-38N 074-52E 234M
Jan 28, 2022 - 08:30 PM EST / 2022.01.29 0130 UTC
Wind: Calm:0
Visibility: less than 1 mile:0
Weather: mist
Temperature: 42 F (6 C)
Dew Point: 42 F (6 C)
Relative Humidity: 100%
Pressure (altimeter): 30.03 in. Hg (1017 hPa)
ob: VIAR 290130Z 00000KT 1200 R34/2000 BR NSC 06/06 Q1017 NOSIG
cycle: 1

Station Type Date Time Source
VIAR TAF 2022/01/28 18:57 UTC NOAA

TAF TAF VIAR 281700Z 2818/2924 00000KT 2500 BR NSC
BECMG 2900/2902 1200 BR FEW030
BECMG 2904/2906 VRB02KT 2500 BR HZ
BECMG 2907/2909 27005KT 4000 HZ
BECMG 2915/2917 00000KT 2500 HZ BR

Example: see airport list